createdAt,value
2019-03-02T00:00:22.164Z,16.40
2019-03-02T00:02:51.282Z,17.67
2019-03-02T00:05:20.859Z,16.40
2019-03-02T00:07:52.484Z,17.53
2019-03-02T00:10:24.145Z,15.53
2019-03-02T00:12:53.500Z,18.73
2019-03-02T00:15:22.996Z,16.83
2019-03-02T00:17:54.225Z,16.33
2019-03-02T00:20:24.078Z,18.03
2019-03-02T00:22:53.081Z,16.93
2019-03-02T00:25:22.151Z,18.27
2019-03-02T00:27:54.050Z,18.27
2019-03-02T00:30:22.521Z,20.53
2019-03-02T00:32:51.513Z,21.77
2019-03-02T00:35:26.056Z,18.53
2019-03-02T00:37:55.964Z,21.13
2019-03-02T00:40:30.198Z,19.20
2019-03-02T00:42:58.232Z,17.20
2019-03-02T00:45:27.798Z,16.60
2019-03-02T00:47:56.878Z,16.47
2019-03-02T00:50:25.938Z,16.80
2019-03-02T00:52:59.177Z,16.80
2019-03-02T00:55:31.582Z,19.83
2019-03-02T00:58:01.304Z,15.20
2019-03-02T01:00:30.390Z,18.43
2019-03-02T01:02:59.391Z,17.87
2019-03-02T01:05:28.478Z,16.20
2019-03-02T01:07:59.834Z,20.17
2019-03-02T01:10:28.996Z,19.40
2019-03-02T01:12:58.314Z,15.97
2019-03-02T01:15:30.293Z,19.70
2019-03-02T01:18:00.307Z,17.20
2019-03-02T01:20:29.931Z,18.47
2019-03-02T01:23:01.048Z,19.73
2019-03-02T01:25:30.119Z,18.33
2019-03-02T01:27:59.229Z,16.73
2019-03-02T01:30:29.951Z,17.80
2019-03-02T01:32:59.185Z,19.10
2019-03-02T01:35:28.250Z,17.47
2019-03-02T01:37:57.309Z,15.60
2019-03-02T01:40:26.390Z,17.53
2019-03-02T01:42:56.669Z,15.73
2019-03-02T01:45:27.679Z,18.37
2019-03-02T01:47:56.376Z,17.13
2019-03-02T01:50:25.379Z,19.83
2019-03-02T01:52:54.786Z,22.20
2019-03-02T01:55:23.824Z,17.90
2019-03-02T01:57:53.208Z,21.50
2019-03-02T02:00:30.173Z,29.30
2019-03-02T02:03:01.350Z,28.27
2019-03-02T02:05:32.071Z,26.47
2019-03-02T02:08:01.646Z,22.13
2019-03-02T02:10:30.639Z,21.67
2019-03-02T02:13:02.808Z,18.63
2019-03-02T02:15:30.329Z,19.97
2019-03-02T02:17:59.473Z,22.53
2019-03-02T02:20:28.348Z,23.70
2019-03-02T02:23:03.275Z,22.43
2019-03-02T02:25:32.628Z,22.30
2019-03-02T02:28:04.859Z,23.53
2019-03-02T02:30:33.983Z,23.90
2019-03-02T02:33:05.517Z,25.87
2019-03-02T02:35:39.280Z,27.33
2019-03-02T02:38:05.204Z,24.03
2019-03-02T02:40:34.302Z,22.70
2019-03-02T02:43:03.278Z,22.90
2019-03-02T02:45:32.351Z,26.00
2019-03-02T04:59:35.383Z,26.37
2019-03-02T05:02:04.441Z,25.00
2019-03-02T05:04:34.601Z,28.07
2019-03-02T05:07:03.481Z,25.43
2019-03-02T05:09:32.431Z,30.23
2019-03-02T05:12:01.404Z,27.20
2019-03-02T05:14:30.374Z,24.83
2019-03-02T05:17:03.396Z,27.70
2019-03-02T05:19:30.018Z,32.33
2019-03-02T05:21:59.036Z,30.17
2019-03-02T05:24:28.785Z,28.10
2019-03-02T05:26:57.784Z,36.77
2019-03-02T05:29:26.685Z,27.13
2019-03-02T05:31:55.541Z,28.80
2019-03-02T05:34:27.261Z,29.47
2019-03-02T05:36:59.753Z,22.87
2019-03-02T05:39:26.816Z,24.40
2019-03-02T05:41:55.826Z,25.90
2019-03-02T05:44:24.808Z,22.93
2019-03-02T05:46:53.764Z,24.50
2019-03-02T05:49:22.667Z,24.77
2019-03-02T05:51:51.609Z,20.73
2019-03-02T05:54:20.497Z,24.03
2019-03-02T05:56:49.521Z,22.17
2019-03-02T05:59:18.473Z,23.90
2019-03-02T06:01:47.358Z,23.37
2019-03-02T06:04:18.834Z,25.83
2019-03-02T06:06:47.097Z,24.37
2019-03-02T06:09:16.041Z,28.20
2019-03-02T06:11:45.014Z,24.77
2019-03-02T06:14:13.909Z,25.63
2019-03-02T06:16:42.781Z,25.00
2019-03-02T06:19:11.674Z,25.17
2019-03-02T06:21:42.799Z,30.20
2019-03-02T06:24:11.909Z,27.73
2019-03-02T06:26:40.934Z,28.93
2019-03-02T06:29:12.262Z,30.73
2019-03-02T06:31:41.221Z,30.00
2019-03-02T06:34:13.117Z,28.13
2019-03-02T06:36:44.693Z,32.83
2019-03-02T06:39:12.884Z,28.43
2019-03-02T06:41:42.968Z,31.97
2019-03-02T06:44:11.954Z,33.37
2019-03-02T06:46:40.944Z,30.97
2019-03-02T06:49:09.970Z,35.03
2019-03-02T06:51:38.938Z,34.90
2019-03-02T06:54:08.923Z,28.43
2019-03-02T06:56:39.530Z,32.40
2019-03-02T06:59:08.604Z,29.00
2019-03-02T07:01:37.521Z,29.23
2019-03-02T07:04:06.529Z,29.43
2019-03-02T07:06:36.412Z,27.83
2019-03-02T07:09:10.617Z,28.57
2019-03-02T07:11:40.386Z,32.27
2019-03-02T07:14:09.651Z,30.03
2019-03-02T07:16:38.630Z,29.60
2019-03-02T07:19:51.884Z,28.93
2019-03-02T07:22:20.345Z,28.37
2019-03-02T07:24:51.784Z,28.13
2019-03-02T07:27:21.646Z,41.33
2019-03-02T07:29:53.611Z,29.63
2019-03-02T07:32:21.209Z,30.17
2019-03-02T07:34:50.110Z,30.63
2019-03-02T07:37:19.011Z,26.20
2019-03-02T07:39:48.084Z,28.77
2019-03-02T07:42:17.075Z,33.73
2019-03-02T07:44:46.538Z,29.10
2019-03-02T07:47:20.701Z,35.23
2019-03-02T07:49:49.858Z,32.57
2019-03-02T07:52:19.185Z,35.40
2019-03-02T07:54:57.693Z,32.77
2019-03-02T07:57:18.770Z,30.27
2019-03-02T07:59:47.693Z,31.57
2019-03-02T08:02:16.589Z,29.33
2019-03-02T08:04:45.454Z,30.77
2019-03-02T08:07:14.384Z,33.43
2019-03-02T08:09:43.327Z,37.27
2019-03-02T08:12:12.273Z,29.13
2019-03-02T08:14:44.408Z,28.03
2019-03-02T08:17:13.439Z,34.60
2019-03-02T08:19:44.797Z,28.80
2019-03-02T08:22:13.354Z,28.83
2019-03-02T08:24:43.769Z,27.93
2019-03-02T08:27:13.681Z,30.57
2019-03-02T08:29:44.939Z,27.70
2019-03-02T08:32:13.816Z,29.77
2019-03-02T08:34:46.404Z,26.47
2019-03-02T08:37:16.587Z,31.13
2019-03-02T08:39:46.637Z,28.20
2019-03-02T08:42:18.572Z,24.60
2019-03-02T08:44:50.764Z,29.03
2019-03-02T08:47:20.241Z,26.70
2019-03-02T08:49:49.199Z,26.10
2019-03-02T08:52:18.274Z,28.80
2019-03-02T08:54:47.302Z,35.03
2019-03-02T08:57:19.601Z,25.20
2019-03-02T08:59:46.890Z,24.03
2019-03-02T09:02:15.871Z,22.63
2019-03-02T09:04:47.255Z,25.07
2019-03-02T09:07:15.445Z,24.33
2019-03-02T09:09:44.402Z,31.00
2019-03-02T09:12:13.436Z,24.77
2019-03-02T09:14:45.069Z,24.17
2019-03-02T09:17:14.033Z,24.97
2019-03-02T09:19:43.939Z,24.53
2019-03-02T09:22:12.794Z,21.90
2019-03-02T09:24:41.745Z,22.33
2019-03-02T09:27:10.768Z,20.57
2019-03-02T09:29:39.740Z,21.63
2019-03-02T09:32:10.931Z,20.67
2019-03-02T09:34:40.435Z,21.50
2019-03-02T09:37:11.148Z,22.23
2019-03-02T09:39:40.182Z,22.30
2019-03-02T09:42:09.066Z,19.07
2019-03-02T09:44:37.949Z,21.47
2019-03-02T09:47:08.994Z,18.97
2019-03-02T09:49:38.300Z,18.77
2019-03-02T09:52:09.702Z,18.73
2019-03-02T09:54:38.629Z,19.50
2019-03-02T09:57:07.924Z,17.30
2019-03-02T09:59:36.793Z,19.57
2019-03-02T10:02:05.801Z,16.93
2019-03-02T10:04:35.800Z,19.40
2019-03-02T10:07:05.440Z,16.60
2019-03-02T10:09:34.309Z,20.77
2019-03-02T10:12:09.967Z,19.40
2019-03-02T10:14:40.924Z,20.03
2019-03-02T10:17:10.003Z,23.10
2019-03-02T10:19:43.810Z,17.80
2019-03-02T10:22:13.888Z,18.93
2019-03-02T10:24:45.069Z,17.13
2019-03-02T10:27:17.122Z,19.13
2019-03-02T10:29:52.535Z,15.93
2019-03-02T10:32:42.121Z,18.60
2019-03-02T10:35:13.581Z,17.57
2019-03-02T10:37:44.908Z,18.63
2019-03-02T10:40:16.457Z,16.77
2019-03-02T10:42:47.688Z,17.27
2019-03-02T10:45:17.626Z,16.77
2019-03-02T10:47:47.277Z,15.10
2019-03-02T10:50:23.342Z,20.17
2019-03-02T10:52:51.649Z,19.63
2019-03-02T10:55:21.292Z,18.77
2019-03-02T10:58:10.424Z,18.07
2019-03-02T11:00:39.670Z,18.43
2019-03-02T11:06:07.533Z,14.07
2019-03-02T11:09:07.630Z,15.40
2019-03-02T11:11:48.452Z,14.23
2019-03-02T11:14:45.750Z,15.20
2019-03-02T11:17:36.830Z,17.40
2019-03-02T11:20:40.162Z,15.97
2019-03-02T11:26:36.398Z,16.03
2019-03-02T11:29:25.831Z,17.60
2019-03-02T11:32:21.495Z,20.73
2019-03-02T11:35:46.787Z,16.40
2019-03-02T11:38:23.793Z,16.30
2019-03-02T11:41:16.370Z,16.63
2019-03-02T11:44:02.944Z,15.60
2019-03-02T11:46:44.217Z,17.40
2019-03-02T11:49:30.140Z,13.07
2019-03-02T11:52:11.823Z,15.97
2019-03-02T11:54:47.875Z,17.77
2019-03-02T11:57:35.924Z,15.00
2019-03-02T12:00:24.070Z,13.37
2019-03-02T12:03:02.434Z,15.47
2019-03-02T12:05:50.776Z,14.80
2019-03-02T12:08:41.948Z,17.63
2019-03-02T12:11:25.018Z,17.73
2019-03-02T12:14:20.119Z,21.00
2019-03-02T12:17:16.409Z,15.20
2019-03-02T12:20:11.154Z,16.20
2019-03-02T12:22:50.902Z,16.97
2019-03-02T12:25:40.329Z,16.37
2019-03-02T12:28:28.181Z,14.17
2019-03-02T12:31:28.156Z,18.37
2019-03-02T12:34:13.504Z,15.90
2019-03-02T12:37:07.744Z,17.13
2019-03-02T12:39:51.376Z,14.77
2019-03-02T12:42:42.229Z,19.07
2019-03-02T12:45:33.735Z,15.60
2019-03-02T12:48:21.114Z,15.70
2019-03-02T12:51:13.190Z,14.37
2019-03-02T12:54:04.780Z,13.47
2019-03-02T12:56:53.233Z,18.20
2019-03-02T12:59:47.728Z,15.40
2019-03-02T13:02:51.289Z,14.47
2019-03-02T13:05:37.588Z,14.73
2019-03-02T13:08:28.771Z,14.83
2019-03-02T13:11:06.035Z,14.73
2019-03-02T13:13:44.854Z,16.40
2019-03-02T13:16:33.178Z,17.03
2019-03-02T13:19:26.804Z,15.77
2019-03-02T13:22:21.498Z,16.27
2019-03-02T13:25:30.216Z,16.07
2019-03-02T13:28:30.421Z,18.40
2019-03-02T13:31:20.001Z,18.37
2019-03-02T13:34:08.154Z,15.37
2019-03-02T13:36:57.525Z,16.27
2019-03-02T13:39:36.453Z,17.07
2019-03-02T13:42:24.565Z,18.30
2019-03-02T13:48:17.634Z,19.50
2019-03-02T13:50:58.023Z,18.20
2019-03-02T13:53:59.443Z,16.27
2019-03-02T13:56:56.594Z,15.20
2019-03-02T13:59:43.427Z,15.83
2019-03-02T14:02:21.641Z,17.60
2019-03-02T14:05:22.258Z,15.67
2019-03-02T14:08:08.358Z,15.23
2019-03-02T14:11:13.617Z,18.53
2019-03-02T14:14:08.518Z,15.53
2019-03-02T14:17:11.870Z,16.90
2019-03-02T14:19:59.272Z,14.40
2019-03-02T14:23:01.630Z,15.70
2019-03-02T14:25:38.627Z,19.37
2019-03-02T14:28:30.629Z,20.40
2019-03-02T14:31:22.561Z,15.40
2019-03-02T14:34:12.023Z,16.50
2019-03-02T14:36:59.158Z,18.67
2019-03-02T14:39:45.243Z,15.33
2019-03-02T14:42:34.734Z,18.10
2019-03-02T14:45:23.210Z,17.63
2019-03-02T14:48:17.050Z,25.30
2019-03-02T14:51:17.020Z,17.73
2019-03-02T14:53:51.234Z,15.67
2019-03-02T14:57:06.972Z,16.47
2019-03-02T14:59:58.101Z,15.47
2019-03-02T15:02:49.077Z,15.23
2019-03-02T15:05:53.165Z,16.43
2019-03-02T15:08:38.229Z,15.37
2019-03-02T15:11:17.890Z,16.90
2019-03-02T15:14:08.630Z,16.53
2019-03-02T15:16:55.653Z,20.67
2019-03-02T15:19:58.030Z,20.30
2019-03-02T15:22:44.722Z,17.17
2019-03-02T15:25:33.876Z,18.87
2019-03-02T15:28:37.590Z,19.07
2019-03-02T15:31:12.055Z,18.53
2019-03-02T15:33:54.686Z,16.30
2019-03-02T15:36:34.300Z,27.27
2019-03-02T15:39:27.270Z,21.03
2019-03-02T15:42:29.283Z,25.10
2019-03-02T15:45:04.480Z,16.03
2019-03-02T15:47:59.738Z,19.10
2019-03-02T15:50:51.283Z,17.47
2019-03-02T15:53:46.025Z,13.87
2019-03-02T15:56:34.988Z,13.57
2019-03-02T15:59:27.742Z,12.77
2019-03-02T16:02:54.556Z,12.07
2019-03-02T16:06:11.327Z,16.53
2019-03-02T16:10:00.856Z,12.33
2019-03-02T16:17:27.512Z,12.80
2019-03-02T16:20:21.409Z,13.60
2019-03-02T16:26:54.385Z,11.83
2019-03-02T16:33:40.639Z,12.43
2019-03-02T16:40:50.095Z,13.33
2019-03-02T16:44:35.966Z,13.33
2019-03-02T16:47:25.076Z,14.77
2019-03-02T16:54:20.942Z,20.33
2019-03-02T16:57:12.502Z,21.13
2019-03-02T17:00:05.139Z,22.77
2019-03-02T17:03:06.986Z,14.27
2019-03-02T17:05:50.396Z,14.47
2019-03-02T17:08:35.402Z,14.67
2019-03-02T17:11:24.074Z,15.80
2019-03-02T17:14:18.878Z,16.43
2019-03-02T17:17:07.954Z,14.83
2019-03-02T17:20:01.237Z,13.87
2019-03-02T17:22:49.406Z,13.27
2019-03-02T17:25:58.602Z,14.47
2019-03-02T17:28:38.999Z,16.57
2019-03-02T17:31:49.586Z,15.70
2019-03-02T17:35:07.788Z,22.43
2019-03-02T17:38:32.161Z,25.07
2019-03-02T17:41:18.735Z,16.53
2019-03-02T17:44:26.337Z,18.67
2019-03-02T17:47:22.962Z,12.57
2019-03-02T17:50:31.585Z,14.80
2019-03-02T17:53:22.956Z,16.17
2019-03-02T17:56:41.035Z,12.97
2019-03-02T17:59:35.369Z,19.33
2019-03-02T18:02:42.067Z,15.97
2019-03-02T18:05:39.515Z,14.87
2019-03-02T18:08:48.100Z,17.30
2019-03-02T18:11:40.134Z,15.40
2019-03-02T18:14:22.369Z,17.00
2019-03-02T18:17:04.020Z,15.17
2019-03-02T18:19:33.285Z,12.50
2019-03-02T18:22:02.229Z,15.57
2019-03-02T18:24:35.302Z,14.37
2019-03-02T18:29:55.468Z,12.60
2019-03-02T18:32:24.736Z,11.80
2019-03-02T18:34:56.875Z,12.97
2019-03-02T18:37:26.512Z,14.27
2019-03-02T18:40:02.398Z,11.90
2019-03-02T18:42:31.863Z,11.90
2019-03-02T18:45:04.416Z,11.20
2019-03-02T18:47:32.672Z,11.27
2019-03-02T18:50:28.331Z,13.30
2019-03-02T18:53:02.717Z,12.23
2019-03-02T18:55:32.377Z,10.80
2019-03-02T18:58:01.281Z,8.87
2019-03-02T19:00:33.599Z,12.20
2019-03-02T19:03:02.576Z,11.10
2019-03-02T19:05:31.605Z,9.37
2019-03-02T19:08:04.310Z,12.13
2019-03-02T19:10:34.808Z,11.40
2019-03-02T19:13:08.351Z,15.60
2019-03-02T19:15:39.038Z,11.93
2019-03-02T19:18:08.116Z,12.33
2019-03-02T19:20:37.573Z,10.47
2019-03-02T19:23:10.799Z,11.90
2019-03-02T19:25:56.677Z,13.13
2019-03-02T19:28:27.981Z,12.40
2019-03-02T19:30:58.388Z,11.00
2019-03-02T19:33:27.375Z,13.90
2019-03-02T19:36:06.814Z,12.67
2019-03-02T19:38:37.858Z,13.00
2019-03-02T19:41:15.152Z,16.33
2019-03-02T19:43:44.115Z,13.27
2019-03-02T19:46:13.172Z,17.70
2019-03-02T19:48:43.162Z,10.77
2019-03-02T19:51:12.112Z,14.10
2019-03-02T19:53:46.985Z,12.23
2019-03-02T19:56:16.548Z,12.60
2019-03-02T19:58:45.746Z,12.73
2019-03-02T20:01:16.801Z,15.17
2019-03-02T20:03:46.095Z,13.67
2019-03-02T20:06:15.095Z,13.60
2019-03-02T20:08:50.061Z,12.73
2019-03-02T20:11:21.557Z,13.23
2019-03-02T20:14:08.052Z,13.67
2019-03-02T20:16:41.463Z,13.23
2019-03-02T20:19:13.701Z,12.97
2019-03-02T20:21:45.946Z,13.27
2019-03-02T20:24:14.937Z,13.20
2019-03-02T20:26:44.390Z,14.87
2019-03-02T20:29:14.249Z,14.40
2019-03-02T20:31:51.697Z,16.30
2019-03-02T20:34:21.181Z,20.80
2019-03-02T20:36:50.238Z,19.47
2019-03-02T20:39:20.327Z,18.33
2019-03-02T20:41:49.360Z,20.03
2019-03-02T20:44:18.811Z,19.93
2019-03-02T20:46:48.490Z,20.53
2019-03-02T20:49:19.962Z,17.90
2019-03-02T20:51:50.741Z,20.33
2019-03-02T20:54:19.834Z,18.13
2019-03-02T20:56:48.890Z,16.50
2019-03-02T20:59:17.880Z,17.10
2019-03-02T21:01:47.990Z,26.80
2019-03-02T21:04:16.898Z,18.40
2019-03-02T21:06:48.163Z,16.57
2019-03-02T21:09:19.229Z,17.40
2019-03-02T21:11:52.713Z,14.50
2019-03-02T21:14:24.243Z,12.37
2019-03-02T21:16:55.093Z,13.90
2019-03-02T21:19:27.841Z,15.27
2019-03-02T21:21:56.834Z,13.87
2019-03-02T21:24:26.006Z,15.30
2019-03-02T21:26:54.970Z,18.10
2019-03-02T21:29:28.686Z,16.20
2019-03-02T21:31:58.409Z,13.53
2019-03-02T21:34:31.491Z,18.00
2019-03-02T21:37:03.095Z,21.73
2019-03-02T21:39:32.399Z,11.73
2019-03-02T21:42:05.423Z,13.93
2019-03-02T21:44:34.483Z,12.97
2019-03-02T21:47:03.773Z,15.03
2019-03-02T21:49:33.922Z,11.10
2019-03-02T21:52:03.141Z,11.13
2019-03-02T21:54:32.609Z,10.97
2019-03-02T21:57:01.657Z,12.27
2019-03-02T21:59:30.674Z,12.07
2019-03-02T22:01:59.745Z,11.03
2019-03-02T22:04:28.636Z,14.70
2019-03-02T22:06:58.647Z,13.43
2019-03-02T22:09:30.173Z,13.60
2019-03-02T22:12:01.503Z,11.47
2019-03-02T22:14:31.741Z,11.67
2019-03-02T22:17:02.275Z,9.83
2019-03-02T22:19:31.224Z,10.90
2019-03-02T22:22:00.172Z,10.07
2019-03-02T22:24:29.153Z,11.60
2019-03-02T22:26:58.625Z,12.60
2019-03-02T22:29:33.226Z,12.03
2019-03-02T22:32:02.196Z,9.27
2019-03-02T22:34:32.111Z,8.87
2019-03-02T22:37:01.021Z,9.63
2019-03-02T22:39:29.982Z,10.17
2019-03-02T22:41:58.936Z,10.00
2019-03-02T22:44:27.845Z,11.70
2019-03-02T22:46:57.177Z,9.73
2019-03-02T22:49:26.082Z,7.40
2019-03-02T22:51:54.988Z,10.33
2019-03-02T22:54:23.890Z,7.97
2019-03-02T22:56:53.060Z,11.33
2019-03-02T22:59:24.310Z,11.20
2019-03-02T23:02:04.653Z,8.87
2019-03-02T23:04:33.676Z,8.40
2019-03-02T23:07:02.598Z,9.53
2019-03-02T23:09:31.485Z,7.67
2019-03-02T23:12:00.651Z,11.77
2019-03-02T23:14:31.922Z,7.57
2019-03-02T23:17:02.562Z,5.87
2019-03-02T23:19:31.584Z,7.90
2019-03-02T23:22:01.628Z,7.27
2019-03-02T23:24:30.574Z,9.40
2019-03-02T23:26:59.443Z,7.60
2019-03-02T23:29:28.316Z,8.50
2019-03-02T23:31:57.424Z,7.10
2019-03-02T23:34:26.819Z,10.33
2019-03-02T23:36:56.018Z,5.73
2019-03-02T23:39:24.899Z,9.63
2019-03-02T23:41:54.714Z,8.73
2019-03-02T23:44:23.604Z,12.47
2019-03-02T23:46:52.620Z,14.17
2019-03-02T23:49:21.611Z,35.20
2019-03-02T23:51:50.587Z,20.63
2019-03-02T23:54:19.463Z,13.47
2019-03-02T23:56:48.434Z,9.70
2019-03-02T23:59:18.552Z,11.17
